Houma, LA

7:32 PM CDT on March 27, 2015 (GMT -0500)
Amelia | | Change Station
CLOSE
Current Station
Airport
Location: Amelia,
Elevation: 7 ft
Nearby Weather Stations

Elev 7 ft 29.69 °N, 91.10 °W | Updated 25 days ago

Clear
Clear
60 °F
Feels Like 60 °F
N
5
Wind Variable Wind from West
Gusts mph

Today
High -- | Low -- °F
--% Chance of Precip.
Yesterday
High -- | Low -- °F
Precip. -- in
6:58 AM 7:18 PM
First Quarter, 57% visible
Pressure 30.23 in
Visibility 10.0 miles
Clouds Mostly Cloudy 1400 ft
Mostly Cloudy 2200 ft
Overcast 7500 ft
Dew Point 46 °F
Humidity 59%
Rainfall 0.00 in
Snow Depth Not available.
UV 3 out of 12
Pollen 10.30 out of 12
Air Quality Not available.
Flu Activity Not available.
SPECI K7R3 021838Z 00000KT 10SM BKN014 BKN022 OVC075 25/21 A3023

More Conditions Fewer Conditions

Pressure 30.23 in
Visibility 10.0 miles
Clouds Mostly Cloudy 1400 ft
Mostly Cloudy 2200 ft
Overcast 7500 ft
Dew Point 46 °F
Humidity 59%
Rainfall 0.00 in
Snow Depth Not available.
UV 3 out of 12
Pollen 10.30 out of 12
Air Quality Not available.
Flu Activity Not available.
SPECI K7R3 021838Z 00000KT 10SM BKN014 BKN022 OVC075 25/21 A3023

More Conditions Fewer Conditions

10-Day Weather Forecast

Almanac

Astronomy

Mar. 27, 2015 Rise Set
Actual Time
Civil Twilight
Nautical Twilight
Astronomical Twilight
Moon
Length of Visible Light
Length of Day
Tomorrow will be .
, % of the Moon is Illuminated

Today's Extremes

State Highs State Lows

Community

WunderPhotos

Upload Photos

1,808,887 photos uploaded!

WunderBlogs® & News

Nearby

Air Quality

  Air Quality AQ Index Pollutant
Not available.

Snow Depth

Station Depth Elevation

Earthquake Activity

City Distance Mag. Time & Date
Minimum magnitude displayed is 2.5.

Coastal Water Temperatures

Place Temperature

Stations

Nearby Weather Stations

Station Location Temp. Windchill Dew Point Humidity Wind Precip. Elev Updated Type